الصفحة الرئيسية
METAR-TAF:

METAR-TAF

مطار :

Bullsbrook, أستراليا

دائرة عرض: 31-40S, خط طول: 116-01E, ارتفاع: 45 متر

مراقبة الطقس الحالي

تاريخ ووقت الإصدار 44 دقيقة قبل الساعة 06:00UTC
ريح 12 عقدة من الشرق
درجة الحرارة 31°درجة مئوية
الرطوبة 17%
ضغط 1010 hPa
الرؤية 10 كم أو أكثر

METAR: YPEA 060600Z AUTO 09012KT 9999 // NCD 31/03 Q1010

زمن: 14:44 (06:44 UTC)

توقعات

تاريخ ووقت الإصدار 2ساعات و 14 دقيقة قبل الساعة 04:30UTC
التوقعات صالحة من06 الساعة 06 UTC إلى 07 الساعة 00 UTC
ريح 14 عقدة من الشرق
الرؤية 10 كم أو أكثر
الغيوم لا تقل 1500 م ولا وجود لمزنة ركامية السحاب الأسود
من 06 الساعة 1200 UTC
ريح 18 عقدة من الشرق تتزايد حتى 30 عقدة
الرؤية 10 كم أو أكثر
الغيوم لا تقل 1500 م ولا وجود لمزنة ركامية السحاب الأسود
من 06 الساعة 2200 UTC
ريح 16 عقدة من الشرق/الشمال الشرقي تتزايد حتى 28 عقدة
الرؤية 10 كم أو أكثر
الغيوم لا تقل 1500 م ولا وجود لمزنة ركامية السحاب الأسود

TAF: YPEA 060430Z 0606/0700 09014KT CAVOK FM061200 09018G30KT CAVOK FM062200 06016G28KT CAVOK

أرصاد الطقس والتوقعات من أكثر من 4000 مطار (تقارير الطقس للمطار METAR والتنبؤ بالطقس بالمطارTAF).

المحطات المتاحة هي النقط الصفراء والحمراء على الخريطة.

حرك المؤشر فوق النقطة لمعرفة اسم المحطة.

ثم انقر لمعرفة أرصاد وتوقعات الطقس.

لتغيير الخارطة: اضغط على الأزرار الخضراء مع رمز الصليب الأسود للتكبير. على الزر الأخضر مع شرطة للتصغير، أو على الأسهم الخضراء للخرائط المجاورة.


METAR-TAF: